Portada
METAR-TAF:

METAR-TAF

Aeroports :

Baldwin_County_Airport

Milledgeville, Geòrgia, Estats Units d'Amèrica

latitud: 33-09-15N, longitud: 083-14-26W, altitud: 117 m

Observació

L'informe es va fer fa 23 minuts, a les 16:37 UTC
Vent 4 kt del Nord-Oest
Temperatura 27°C
Humitat 84%
Pressió 1014 hPa
Visibilitat: 16.1 km
Cel ennuvolat a una alçada de 1300 ft
Cel cobert a una alçada de 1900 ft

METAR: KMLJ 151637Z AUTO 32004KT 10SM BKN013 OVC019 27/24 A2993 RMK AO2

Hora: 13:00 (17:00 UTC)


TAF: manca

Observacions i pronòstics meteorològics de més de 4000 aeroports (METAR i TAF).

Les estacions disponibles són els punts grocs i vermells al mapa.

Posi el ratolí al punt desitjat per veure el nom de l'estació.

Feu clic per veure les observacions i els pronòstics meteorològics.

Per canviar el mapa: feu clic els botons verds amb una creu de color negre per apropar; al botó verd amb un guió per allunyar la imatge; o en les fletxes verdes per a mapes adjacents.


METAR-TAF: